sensor_id;sensor_type;location;lat;lon;timestamp;pressure;altitude;pressure_sealevel;temperature;humidity
58662;BME280;44432;49.786;22.760;2023-11-21T00:00:48;98511.05;;;5.37;88.88
58662;BME280;44432;49.786;22.760;2023-11-21T00:03:37;98518.39;;;5.37;88.74
58662;BME280;44432;49.786;22.760;2023-11-21T00:06:06;98514.95;;;5.35;89.21
58662;BME280;44432;49.786;22.760;2023-11-21T00:08:36;98518.23;;;5.36;88.99
58662;BME280;44432;49.786;22.760;2023-11-21T00:11:05;98516.33;;;5.36;89.16
58662;BME280;44432;49.786;22.760;2023-11-21T00:13:34;98515.09;;;5.36;89.16
58662;BME280;44432;49.786;22.760;2023-11-21T00:16:03;98513.27;;;5.37;89.30
58662;BME280;44432;49.786;22.760;2023-11-21T00:18:32;98516.17;;;5.37;89.24
58662;BME280;44432;49.786;22.760;2023-11-21T00:21:00;98516.49;;;5.38;89.39
58662;BME280;44432;49.786;22.760;2023-11-21T00:23:28;98525.06;;;5.36;89.49
58662;BME280;44432;49.786;22.760;2023-11-21T00:25:56;98525.21;;;5.34;89.41
58662;BME280;44432;49.786;22.760;2023-11-21T00:28:25;98529.89;;;5.34;89.69
58662;BME280;44432;49.786;22.760;2023-11-21T00:30:54;98536.41;;;5.32;90.09
58662;BME280;44432;49.786;22.760;2023-11-21T00:33:22;98533.31;;;5.30;90.07
58662;BME280;44432;49.786;22.760;2023-11-21T00:35:50;98532.73;;;5.29;90.19
58662;BME280;44432;49.786;22.760;2023-11-21T00:38:18;98534.91;;;5.29;90.20
58662;BME280;44432;49.786;22.760;2023-11-21T00:40:47;98534.56;;;5.29;90.23
58662;BME280;44432;49.786;22.760;2023-11-21T00:43:16;98533.90;;;5.29;90.56
58662;BME280;44432;49.786;22.760;2023-11-21T00:45:44;98530.52;;;5.28;90.38
58662;BME280;44432;49.786;22.760;2023-11-21T00:48:12;98527.70;;;5.26;90.57
58662;BME280;44432;49.786;22.760;2023-11-21T00:50:41;98530.91;;;5.24;90.79
58662;BME280;44432;49.786;22.760;2023-11-21T00:53:09;98526.13;;;5.24;90.81
58662;BME280;44432;49.786;22.760;2023-11-21T00:55:38;98528.80;;;5.23;90.95
58662;BME280;44432;49.786;22.760;2023-11-21T00:58:07;98527.16;;;5.21;90.88
58662;BME280;44432;49.786;22.760;2023-11-21T01:00:36;98527.36;;;5.21;91.17
58662;BME280;44432;49.786;22.760;2023-11-21T01:03:07;98527.24;;;5.19;91.21
58662;BME280;44432;49.786;22.760;2023-11-21T01:05:36;98526.02;;;5.19;91.26
58662;BME280;44432;49.786;22.760;2023-11-21T01:08:05;98522.31;;;5.20;91.47
58662;BME280;44432;49.786;22.760;2023-11-21T01:10:33;98527.13;;;5.20;91.70
58662;BME280;44432;49.786;22.760;2023-11-21T01:13:02;98523.30;;;5.20;91.74
58662;BME280;44432;49.786;22.760;2023-11-21T01:15:33;98520.12;;;5.20;91.58
58662;BME280;44432;49.786;22.760;2023-11-21T01:18:01;98522.77;;;5.21;91.67
58662;BME280;44432;49.786;22.760;2023-11-21T01:20:31;98522.41;;;5.23;91.84
58662;BME280;44432;49.786;22.760;2023-11-21T01:23:00;98524.88;;;5.21;91.69
58662;BME280;44432;49.786;22.760;2023-11-21T01:25:28;98519.52;;;5.24;91.80
58662;BME280;44432;49.786;22.760;2023-11-21T01:27:57;98514.92;;;5.25;91.80
58662;BME280;44432;49.786;22.760;2023-11-21T01:30:25;98512.48;;;5.27;92.04
58662;BME280;44432;49.786;22.760;2023-11-21T01:32:53;98506.60;;;5.28;91.90
58662;BME280;44432;49.786;22.760;2023-11-21T01:35:21;98509.55;;;5.29;91.80
58662;BME280;44432;49.786;22.760;2023-11-21T01:37:50;98511.28;;;5.31;92.15
58662;BME280;44432;49.786;22.760;2023-11-21T01:40:18;98510.36;;;5.33;92.06
58662;BME280;44432;49.786;22.760;2023-11-21T01:42:46;98505.45;;;5.31;91.74
58662;BME280;44432;49.786;22.760;2023-11-21T01:45:15;98508.15;;;5.33;92.15
58662;BME280;44432;49.786;22.760;2023-11-21T01:47:45;98508.83;;;5.35;92.08
58662;BME280;44432;49.786;22.760;2023-11-21T01:50:15;98505.13;;;5.35;91.83
58662;BME280;44432;49.786;22.760;2023-11-21T01:52:45;98506.98;;;5.36;92.16
58662;BME280;44432;49.786;22.760;2023-11-21T01:55:15;98507.79;;;5.36;91.90
58662;BME280;44432;49.786;22.760;2023-11-21T01:57:46;98506.63;;;5.37;92.18
58662;BME280;44432;49.786;22.760;2023-11-21T02:00:15;98505.02;;;5.37;92.41
58662;BME280;44432;49.786;22.760;2023-11-21T02:02:44;98503.93;;;5.38;92.13
58662;BME280;44432;49.786;22.760;2023-11-21T02:05:14;98501.67;;;5.37;92.18
58662;BME280;44432;49.786;22.760;2023-11-21T02:07:42;98503.53;;;5.38;92.39
58662;BME280;44432;49.786;22.760;2023-11-21T02:10:11;98502.64;;;5.37;92.28
58662;BME280;44432;49.786;22.760;2023-11-21T02:12:42;98508.77;;;5.38;92.33
58662;BME280;44432;49.786;22.760;2023-11-21T02:15:13;98504.94;;;5.39;92.41
58662;BME280;44432;49.786;22.760;2023-11-21T02:17:43;98504.05;;;5.41;92.51
58662;BME280;44432;49.786;22.760;2023-11-21T02:20:12;98503.50;;;5.42;92.34
58662;BME280;44432;49.786;22.760;2023-11-21T02:22:43;98507.13;;;5.44;92.45
58662;BME280;44432;49.786;22.760;2023-11-21T02:25:13;98504.91;;;5.45;92.45
58662;BME280;44432;49.786;22.760;2023-11-21T02:27:42;98505.27;;;5.45;92.50
58662;BME280;44432;49.786;22.760;2023-11-21T02:30:12;98506.33;;;5.45;92.56
58662;BME280;44432;49.786;22.760;2023-11-21T02:32:41;98508.21;;;5.45;92.54
58662;BME280;44432;49.786;22.760;2023-11-21T02:35:10;98507.73;;;5.44;92.77
58662;BME280;44432;49.786;22.760;2023-11-21T02:37:39;98512.20;;;5.45;92.71
58662;BME280;44432;49.786;22.760;2023-11-21T02:40:11;98505.44;;;5.46;92.80
58662;BME280;44432;49.786;22.760;2023-11-21T02:42:40;98510.00;;;5.47;92.84
58662;BME280;44432;49.786;22.760;2023-11-21T02:45:10;98513.86;;;5.48;92.49
58662;BME280;44432;49.786;22.760;2023-11-21T02:47:40;98513.95;;;5.49;92.73
58662;BME280;44432;49.786;22.760;2023-11-21T02:50:09;98513.94;;;5.50;92.80
58662;BME280;44432;49.786;22.760;2023-11-21T02:52:38;98515.48;;;5.52;93.06
58662;BME280;44432;49.786;22.760;2023-11-21T02:55:08;98515.89;;;5.53;92.75
58662;BME280;44432;49.786;22.760;2023-11-21T02:57:37;98514.40;;;5.53;92.72
58662;BME280;44432;49.786;22.760;2023-11-21T03:00:07;98515.89;;;5.54;92.99
58662;BME280;44432;49.786;22.760;2023-11-21T03:02:40;98517.75;;;5.55;92.97
58662;BME280;44432;49.786;22.760;2023-11-21T03:05:09;98514.04;;;5.55;92.92
58662;BME280;44432;49.786;22.760;2023-11-21T03:07:38;98516.89;;;5.56;93.05
58662;BME280;44432;49.786;22.760;2023-11-21T03:10:08;98517.18;;;5.56;92.61
58662;BME280;44432;49.786;22.760;2023-11-21T03:12:38;98520.05;;;5.57;92.85
58662;BME280;44432;49.786;22.760;2023-11-21T03:15:08;98520.89;;;5.57;92.95
58662;BME280;44432;49.786;22.760;2023-11-21T03:17:37;98519.41;;;5.58;92.71
58662;BME280;44432;49.786;22.760;2023-11-21T03:20:08;98519.65;;;5.59;92.98
58662;BME280;44432;49.786;22.760;2023-11-21T03:22:38;98519.52;;;5.60;92.74
58662;BME280;44432;49.786;22.760;2023-11-21T03:25:08;98520.21;;;5.60;92.87
58662;BME280;44432;49.786;22.760;2023-11-21T03:27:38;98521.66;;;5.61;92.82
58662;BME280;44432;49.786;22.760;2023-11-21T03:30:11;98518.67;;;5.61;92.76
58662;BME280;44432;49.786;22.760;2023-11-21T03:32:39;98514.41;;;5.62;93.09
58662;BME280;44432;49.786;22.760;2023-11-21T03:35:08;98513.29;;;5.63;92.86
58662;BME280;44432;49.786;22.760;2023-11-21T03:37:37;98509.94;;;5.64;93.06
58662;BME280;44432;49.786;22.760;2023-11-21T03:40:10;98510.99;;;5.64;92.84
58662;BME280;44432;49.786;22.760;2023-11-21T03:42:40;98511.80;;;5.64;92.77
58662;BME280;44432;49.786;22.760;2023-11-21T03:45:09;98510.75;;;5.65;92.96
58662;BME280;44432;49.786;22.760;2023-11-21T03:47:39;98508.86;;;5.64;93.03
58662;BME280;44432;49.786;22.760;2023-11-21T03:50:09;98512.13;;;5.65;93.11
58662;BME280;44432;49.786;22.760;2023-11-21T03:52:38;98511.84;;;5.65;93.26
58662;BME280;44432;49.786;22.760;2023-11-21T03:55:07;98506.65;;;5.66;93.11
58662;BME280;44432;49.786;22.760;2023-11-21T03:57:35;98510.60;;;5.67;93.03
58662;BME280;44432;49.786;22.760;2023-11-21T04:00:05;98508.66;;;5.68;93.07
58662;BME280;44432;49.786;22.760;2023-11-21T04:02:36;98514.83;;;5.69;93.08
58662;BME280;44432;49.786;22.760;2023-11-21T04:05:05;98518.38;;;5.71;93.21
58662;BME280;44432;49.786;22.760;2023-11-21T04:07:34;98517.36;;;5.72;93.57
58662;BME280;44432;49.786;22.760;2023-11-21T04:10:04;98524.98;;;5.74;93.41
58662;BME280;44432;49.786;22.760;2023-11-21T04:12:35;98525.91;;;5.75;93.25
58662;BME280;44432;49.786;22.760;2023-11-21T04:15:04;98527.13;;;5.77;93.27
58662;BME280;44432;49.786;22.760;2023-11-21T04:17:32;98526.04;;;5.77;93.37
58662;BME280;44432;49.786;22.760;2023-11-21T04:20:00;98528.66;;;5.78;93.46
58662;BME280;44432;49.786;22.760;2023-11-21T04:22:29;98526.00;;;5.79;93.38
58662;BME280;44432;49.786;22.760;2023-11-21T04:24:57;98530.84;;;5.79;93.35
58662;BME280;44432;49.786;22.760;2023-11-21T04:27:25;98530.27;;;5.78;93.29
58662;BME280;44432;49.786;22.760;2023-11-21T04:29:54;98531.52;;;5.78;93.29
58662;BME280;44432;49.786;22.760;2023-11-21T04:32:23;98531.40;;;5.77;93.59
58662;BME280;44432;49.786;22.760;2023-11-21T04:34:51;98530.75;;;5.75;93.43
58662;BME280;44432;49.786;22.760;2023-11-21T04:37:19;98531.60;;;5.76;93.17
58662;BME280;44432;49.786;22.760;2023-11-21T04:39:48;98530.06;;;5.75;93.50
58662;BME280;44432;49.786;22.760;2023-11-21T04:42:17;98530.91;;;5.76;93.67
58662;BME280;44432;49.786;22.760;2023-11-21T04:44:45;98531.36;;;5.76;93.86
58662;BME280;44432;49.786;22.760;2023-11-21T04:47:14;98533.86;;;5.77;93.73
58662;BME280;44432;49.786;22.760;2023-11-21T04:49:43;98533.98;;;5.78;94.02
58662;BME280;44432;49.786;22.760;2023-11-21T04:52:14;98535.90;;;5.77;93.37
58662;BME280;44432;49.786;22.760;2023-11-21T04:54:43;98542.40;;;5.77;93.94
58662;BME280;44432;49.786;22.760;2023-11-21T04:57:11;98537.29;;;5.78;93.86
58662;BME280;44432;49.786;22.760;2023-11-21T04:59:39;98543.01;;;5.79;93.89
58662;BME280;44432;49.786;22.760;2023-11-21T05:02:08;98543.21;;;5.80;94.15
58662;BME280;44432;49.786;22.760;2023-11-21T05:04:36;98545.66;;;5.82;94.06
58662;BME280;44432;49.786;22.760;2023-11-21T05:07:04;98543.45;;;5.82;93.80
58662;BME280;44432;49.786;22.760;2023-11-21T05:09:33;98546.67;;;5.83;93.94
58662;BME280;44432;49.786;22.760;2023-11-21T05:12:02;98546.52;;;5.83;93.81
58662;BME280;44432;49.786;22.760;2023-11-21T05:14:31;98550.06;;;5.83;94.20
58662;BME280;44432;49.786;22.760;2023-11-21T05:16:59;98557.60;;;5.85;93.89
58662;BME280;44432;49.786;22.760;2023-11-21T05:19:28;98558.05;;;5.85;93.70
58662;BME280;44432;49.786;22.760;2023-11-21T05:21:57;98560.30;;;5.85;93.84
58662;BME280;44432;49.786;22.760;2023-11-21T05:24:26;98558.48;;;5.84;93.90
58662;BME280;44432;49.786;22.760;2023-11-21T05:26:55;98562.52;;;5.84;94.01
58662;BME280;44432;49.786;22.760;2023-11-21T05:29:24;98560.22;;;5.84;94.15
58662;BME280;44432;49.786;22.760;2023-11-21T05:31:53;98558.92;;;5.83;94.09
58662;BME280;44432;49.786;22.760;2023-11-21T05:34:21;98559.73;;;5.83;94.08
58662;BME280;44432;49.786;22.760;2023-11-21T05:36:51;98556.36;;;5.84;94.38
58662;BME280;44432;49.786;22.760;2023-11-21T05:39:21;98562.69;;;5.85;94.25
58662;BME280;44432;49.786;22.760;2023-11-21T05:41:49;98559.34;;;5.86;94.42
58662;BME280;44432;49.786;22.760;2023-11-21T05:44:18;98566.16;;;5.88;94.42
58662;BME280;44432;49.786;22.760;2023-11-21T05:46:46;98566.06;;;5.90;94.53
58662;BME280;44432;49.786;22.760;2023-11-21T05:49:14;98568.29;;;5.92;94.36
58662;BME280;44432;49.786;22.760;2023-11-21T05:51:43;98564.50;;;5.94;94.67
58662;BME280;44432;49.786;22.760;2023-11-21T05:54:13;98565.91;;;5.97;94.85
58662;BME280;44432;49.786;22.760;2023-11-21T05:56:41;98567.16;;;5.99;94.66
58662;BME280;44432;49.786;22.760;2023-11-21T05:59:09;98566.08;;;6.01;94.56
58662;BME280;44432;49.786;22.760;2023-11-21T06:01:38;98569.10;;;6.03;94.70
58662;BME280;44432;49.786;22.760;2023-11-21T06:04:06;98571.69;;;6.05;94.54
58662;BME280;44432;49.786;22.760;2023-11-21T06:06:35;98577.93;;;6.06;94.40
58662;BME280;44432;49.786;22.760;2023-11-21T06:09:04;98577.21;;;6.08;94.40
58662;BME280;44432;49.786;22.760;2023-11-21T06:11:33;98578.86;;;6.08;94.45
58662;BME280;44432;49.786;22.760;2023-11-21T06:14:02;98580.77;;;6.09;94.53
58662;BME280;44432;49.786;22.760;2023-11-21T06:16:31;98586.36;;;6.11;94.45
58662;BME280;44432;49.786;22.760;2023-11-21T06:18:59;98588.38;;;6.13;94.77
58662;BME280;44432;49.786;22.760;2023-11-21T06:21:27;98587.62;;;6.16;94.26
58662;BME280;44432;49.786;22.760;2023-11-21T06:23:56;98590.44;;;6.18;94.84
58662;BME280;44432;49.786;22.760;2023-11-21T06:26:25;98590.77;;;6.22;94.60
58662;BME280;44432;49.786;22.760;2023-11-21T06:28:55;98593.45;;;6.23;94.50
58662;BME280;44432;49.786;22.760;2023-11-21T06:31:24;98595.30;;;6.26;94.34
58662;BME280;44432;49.786;22.760;2023-11-21T06:33:52;98595.63;;;6.29;94.48
58662;BME280;44432;49.786;22.760;2023-11-21T06:36:21;98602.36;;;6.32;94.32
58662;BME280;44432;49.786;22.760;2023-11-21T06:38:50;98604.49;;;6.35;94.66
58662;BME280;44432;49.786;22.760;2023-11-21T06:41:18;98604.20;;;6.39;94.78
58662;BME280;44432;49.786;22.760;2023-11-21T06:43:47;98607.39;;;6.41;94.39
58662;BME280;44432;49.786;22.760;2023-11-21T06:46:15;98606.75;;;6.43;94.20
58662;BME280;44432;49.786;22.760;2023-11-21T06:48:44;98610.30;;;6.45;94.52
58662;BME280;44432;49.786;22.760;2023-11-21T06:51:12;98606.98;;;6.47;94.21
58662;BME280;44432;49.786;22.760;2023-11-21T06:53:41;98612.88;;;6.51;94.54
58662;BME280;44432;49.786;22.760;2023-11-21T06:56:16;98614.92;;;6.53;94.22
58662;BME280;44432;49.786;22.760;2023-11-21T06:58:45;98621.52;;;6.56;94.36
58662;BME280;44432;49.786;22.760;2023-11-21T07:01:14;98621.50;;;6.56;94.43
58662;BME280;44432;49.786;22.760;2023-11-21T07:03:43;98625.86;;;6.60;94.27
58662;BME280;44432;49.786;22.760;2023-11-21T07:06:11;98628.09;;;6.63;94.60
58662;BME280;44432;49.786;22.760;2023-11-21T07:08:40;98626.11;;;6.66;94.54
58662;BME280;44432;49.786;22.760;2023-11-21T07:11:09;98623.16;;;6.68;94.48
58662;BME280;44432;49.786;22.760;2023-11-21T07:13:37;98628.73;;;6.70;94.38
58662;BME280;44432;49.786;22.760;2023-11-21T07:16:07;98627.44;;;6.72;94.01
58662;BME280;44432;49.786;22.760;2023-11-21T07:18:35;98623.80;;;6.73;94.10
58662;BME280;44432;49.786;22.760;2023-11-21T07:21:05;98622.44;;;6.74;94.37
58662;BME280;44432;49.786;22.760;2023-11-21T07:23:33;98627.55;;;6.76;94.40
58662;BME280;44432;49.786;22.760;2023-11-21T07:26:01;98628.08;;;6.77;94.15
58662;BME280;44432;49.786;22.760;2023-11-21T07:28:30;98629.45;;;6.79;94.46
58662;BME280;44432;49.786;22.760;2023-11-21T07:30:58;98625.48;;;6.80;94.20
58662;BME280;44432;49.786;22.760;2023-11-21T07:33:27;98627.05;;;6.82;94.44
58662;BME280;44432;49.786;22.760;2023-11-21T07:35:56;98629.23;;;6.84;94.29
58662;BME280;44432;49.786;22.760;2023-11-21T07:38:24;98632.30;;;6.85;94.25
58662;BME280;44432;49.786;22.760;2023-11-21T07:40:52;98634.69;;;6.85;94.06
58662;BME280;44432;49.786;22.760;2023-11-21T07:43:21;98634.45;;;6.86;94.02
58662;BME280;44432;49.786;22.760;2023-11-21T07:45:49;98629.48;;;6.86;94.18
58662;BME280;44432;49.786;22.760;2023-11-21T07:48:18;98630.08;;;6.87;94.13
58662;BME280;44432;49.786;22.760;2023-11-21T07:50:46;98627.09;;;6.88;94.05
58662;BME280;44432;49.786;22.760;2023-11-21T07:53:15;98625.84;;;6.92;93.95
58662;BME280;44432;49.786;22.760;2023-11-21T07:55:43;98624.26;;;6.94;94.39
58662;BME280;44432;49.786;22.760;2023-11-21T07:58:12;98622.60;;;6.99;94.38
58662;BME280;44432;49.786;22.760;2023-11-21T08:00:41;98630.13;;;7.03;94.15
58662;BME280;44432;49.786;22.760;2023-11-21T08:03:09;98632.67;;;7.06;94.02
58662;BME280;44432;49.786;22.760;2023-11-21T08:05:39;98639.65;;;7.07;93.87
58662;BME280;44432;49.786;22.760;2023-11-21T08:08:07;98640.98;;;7.09;93.82
58662;BME280;44432;49.786;22.760;2023-11-21T08:10:36;98637.96;;;7.08;93.74
58662;BME280;44432;49.786;22.760;2023-11-21T08:13:05;98642.27;;;7.11;93.86
58662;BME280;44432;49.786;22.760;2023-11-21T08:15:34;98649.14;;;7.12;93.75
58662;BME280;44432;49.786;22.760;2023-11-21T08:18:03;98646.15;;;7.12;93.76
58662;BME280;44432;49.786;22.760;2023-11-21T08:20:32;98647.31;;;7.11;93.51
58662;BME280;44432;49.786;22.760;2023-11-21T08:23:00;98653.78;;;7.10;93.27
58662;BME280;44432;49.786;22.760;2023-11-21T08:25:30;98653.10;;;7.10;93.44
58662;BME280;44432;49.786;22.760;2023-11-21T08:27:58;98654.07;;;7.09;93.48
58662;BME280;44432;49.786;22.760;2023-11-21T08:30:27;98658.70;;;7.10;93.45
58662;BME280;44432;49.786;22.760;2023-11-21T08:32:57;98658.63;;;7.09;93.38
58662;BME280;44432;49.786;22.760;2023-11-21T08:35:26;98652.73;;;7.06;93.05
58662;BME280;44432;49.786;22.760;2023-11-21T08:37:54;98655.40;;;7.06;93.29
58662;BME280;44432;49.786;22.760;2023-11-21T08:40:23;98650.52;;;7.06;93.05
58662;BME280;44432;49.786;22.760;2023-11-21T08:42:51;98653.63;;;7.07;92.76
58662;BME280;44432;49.786;22.760;2023-11-21T08:45:20;98646.52;;;7.08;93.18
58662;BME280;44432;49.786;22.760;2023-11-21T08:47:49;98650.27;;;7.10;92.78
58662;BME280;44432;49.786;22.760;2023-11-21T08:50:18;98648.98;;;7.12;92.76
58662;BME280;44432;49.786;22.760;2023-11-21T08:52:47;98644.58;;;7.14;92.68
58662;BME280;44432;49.786;22.760;2023-11-21T08:55:16;98648.03;;;7.18;92.69
58662;BME280;44432;49.786;22.760;2023-11-21T08:57:45;98648.38;;;7.21;92.78
58662;BME280;44432;49.786;22.760;2023-11-21T09:00:14;98652.86;;;7.25;93.23
58662;BME280;44432;49.786;22.760;2023-11-21T09:02:45;98658.20;;;7.29;92.88
58662;BME280;44432;49.786;22.760;2023-11-21T09:05:14;98655.55;;;7.33;92.90
58662;BME280;44432;49.786;22.760;2023-11-21T09:07:43;98655.33;;;7.40;92.94
58662;BME280;44432;49.786;22.760;2023-11-21T09:10:13;98657.33;;;7.48;92.77
58662;BME280;44432;49.786;22.760;2023-11-21T09:12:42;98657.02;;;7.56;92.90
58662;BME280;44432;49.786;22.760;2023-11-21T09:15:11;98659.24;;;7.64;93.13
58662;BME280;44432;49.786;22.760;2023-11-21T09:17:39;98653.45;;;7.68;92.95
58662;BME280;44432;49.786;22.760;2023-11-21T09:20:10;98655.29;;;7.72;92.34
58662;BME280;44432;49.786;22.760;2023-11-21T09:22:38;98654.44;;;7.73;92.47
58662;BME280;44432;49.786;22.760;2023-11-21T09:25:08;98653.73;;;7.75;92.29
58662;BME280;44432;49.786;22.760;2023-11-21T09:27:37;98653.09;;;7.77;92.25
58662;BME280;44432;49.786;22.760;2023-11-21T09:30:07;98654.81;;;7.78;92.43
58662;BME280;44432;49.786;22.760;2023-11-21T09:32:38;98653.08;;;7.78;92.03
58662;BME280;44432;49.786;22.760;2023-11-21T09:35:08;98650.53;;;7.77;92.26
58662;BME280;44432;49.786;22.760;2023-11-21T09:37:37;98656.08;;;7.75;91.62
58662;BME280;44432;49.786;22.760;2023-11-21T09:40:11;98653.79;;;7.73;91.75
58662;BME280;44432;49.786;22.760;2023-11-21T09:42:46;98647.88;;;7.75;91.96
58662;BME280;44432;49.786;22.760;2023-11-21T09:45:24;98644.88;;;7.78;91.89
58662;BME280;44432;49.786;22.760;2023-11-21T09:47:54;98644.59;;;7.85;92.02
58662;BME280;44432;49.786;22.760;2023-11-21T09:50:23;98635.78;;;7.92;91.77
58662;BME280;44432;49.786;22.760;2023-11-21T09:52:57;98635.30;;;8.00;91.70
58662;BME280;44432;49.786;22.760;2023-11-21T09:55:28;98633.05;;;8.10;91.87
58662;BME280;44432;49.786;22.760;2023-11-21T09:57:58;98625.20;;;8.16;91.59
58662;BME280;44432;49.786;22.760;2023-11-21T10:00:26;98633.85;;;8.17;91.23
58662;BME280;44432;49.786;22.760;2023-11-21T10:02:56;98631.06;;;8.17;91.38
58662;BME280;44432;49.786;22.760;2023-11-21T10:05:26;98631.84;;;8.16;91.32
58662;BME280;44432;49.786;22.760;2023-11-21T10:07:56;98629.91;;;8.14;91.27
58662;BME280;44432;49.786;22.760;2023-11-21T10:10:25;98630.96;;;8.14;91.40
58662;BME280;44432;49.786;22.760;2023-11-21T10:12:57;98631.33;;;8.14;91.57
58662;BME280;44432;49.786;22.760;2023-11-21T10:15:30;98632.48;;;8.12;91.28
58662;BME280;44432;49.786;22.760;2023-11-21T10:17:59;98631.59;;;8.10;91.14
58662;BME280;44432;49.786;22.760;2023-11-21T10:20:27;98628.13;;;8.09;91.15
58662;BME280;44432;49.786;22.760;2023-11-21T10:22:57;98627.38;;;8.12;91.15
58662;BME280;44432;49.786;22.760;2023-11-21T10:25:25;98624.36;;;8.15;90.79
58662;BME280;44432;49.786;22.760;2023-11-21T10:27:58;98624.98;;;8.21;91.06
58662;BME280;44432;49.786;22.760;2023-11-21T10:30:34;98622.81;;;8.29;91.01
58662;BME280;44432;49.786;22.760;2023-11-21T10:33:05;98627.23;;;8.39;91.35
58662;BME280;44432;49.786;22.760;2023-11-21T10:35:43;98621.58;;;8.53;91.76
58662;BME280;44432;49.786;22.760;2023-11-21T10:38:14;98621.08;;;8.68;91.64
58662;BME280;44432;49.786;22.760;2023-11-21T10:40:43;98624.66;;;8.80;91.65
58662;BME280;44432;49.786;22.760;2023-11-21T10:43:14;98625.81;;;8.90;91.52
58662;BME280;44432;49.786;22.760;2023-11-21T10:45:43;98629.70;;;8.99;91.43
58662;BME280;44432;49.786;22.760;2023-11-21T10:48:14;98630.63;;;9.03;91.03
58662;BME280;44432;49.786;22.760;2023-11-21T10:50:44;98632.71;;;9.02;90.63
58662;BME280;44432;49.786;22.760;2023-11-21T10:53:13;98633.77;;;8.97;90.36
58662;BME280;44432;49.786;22.760;2023-11-21T10:55:42;98634.50;;;8.92;90.18
58662;BME280;44432;49.786;22.760;2023-11-21T10:58:14;98633.79;;;8.82;89.98
58662;BME280;44432;49.786;22.760;2023-11-21T11:00:42;98633.87;;;8.73;89.95
58662;BME280;44432;49.786;22.760;2023-11-21T11:03:12;98629.48;;;8.66;90.27
58662;BME280;44432;49.786;22.760;2023-11-21T11:05:44;98631.94;;;8.62;90.48
58662;BME280;44432;49.786;22.760;2023-11-21T11:08:20;98630.91;;;8.59;90.59
58662;BME280;44432;49.786;22.760;2023-11-21T11:10:53;98627.02;;;8.54;90.48
58662;BME280;44432;49.786;22.760;2023-11-21T11:13:22;98628.09;;;8.52;90.66
58662;BME280;44432;49.786;22.760;2023-11-21T11:15:52;98629.81;;;8.49;90.65
58662;BME280;44432;49.786;22.760;2023-11-21T11:18:27;98632.95;;;8.47;90.60
58662;BME280;44432;49.786;22.760;2023-11-21T11:21:00;98634.36;;;8.43;90.62
58662;BME280;44432;49.786;22.760;2023-11-21T11:23:43;98638.08;;;8.43;90.79
58662;BME280;44432;49.786;22.760;2023-11-21T11:26:29;98636.66;;;8.43;90.91
58662;BME280;44432;49.786;22.760;2023-11-21T11:29:07;98636.70;;;8.44;90.92
58662;BME280;44432;49.786;22.760;2023-11-21T11:31:49;98639.84;;;8.46;90.83
58662;BME280;44432;49.786;22.760;2023-11-21T11:34:26;98637.53;;;8.46;90.84
58662;BME280;44432;49.786;22.760;2023-11-21T11:37:01;98633.59;;;8.48;90.81
58662;BME280;44432;49.786;22.760;2023-11-21T11:39:30;98640.59;;;8.48;90.70
58662;BME280;44432;49.786;22.760;2023-11-21T11:42:03;98641.88;;;8.50;90.91
58662;BME280;44432;49.786;22.760;2023-11-21T11:44:49;98636.77;;;8.51;91.00
58662;BME280;44432;49.786;22.760;2023-11-21T11:47:24;98643.55;;;8.53;90.70
58662;BME280;44432;49.786;22.760;2023-11-21T11:49:59;98642.71;;;8.51;90.67
58662;BME280;44432;49.786;22.760;2023-11-21T11:52:39;98647.14;;;8.48;90.51
58662;BME280;44432;49.786;22.760;2023-11-21T11:55:09;98647.25;;;8.47;90.69
58662;BME280;44432;49.786;22.760;2023-11-21T11:57:38;98645.45;;;8.48;90.85
58662;BME280;44432;49.786;22.760;2023-11-21T12:00:11;98646.34;;;8.49;90.95
58662;BME280;44432;49.786;22.760;2023-11-21T12:02:45;98648.17;;;8.51;90.93
58662;BME280;44432;49.786;22.760;2023-11-21T12:05:15;98645.59;;;8.51;90.66
58662;BME280;44432;49.786;22.760;2023-11-21T12:07:47;98643.77;;;8.50;90.64
58662;BME280;44432;49.786;22.760;2023-11-21T12:10:17;98647.46;;;8.49;90.61
58662;BME280;44432;49.786;22.760;2023-11-21T12:12:48;98645.14;;;8.45;90.64
58662;BME280;44432;49.786;22.760;2023-11-21T12:15:17;98644.74;;;8.44;90.66
58662;BME280;44432;49.786;22.760;2023-11-21T12:17:46;98644.59;;;8.43;90.72
58662;BME280;44432;49.786;22.760;2023-11-21T12:20:19;98644.80;;;8.41;90.63
58662;BME280;44432;49.786;22.760;2023-11-21T12:22:49;98644.38;;;8.40;90.93
58662;BME280;44432;49.786;22.760;2023-11-21T12:25:18;98645.45;;;8.37;90.96
58662;BME280;44432;49.786;22.760;2023-11-21T12:27:49;98640.62;;;8.34;91.05
58662;BME280;44432;49.786;22.760;2023-11-21T12:30:19;98640.89;;;8.36;90.97
58662;BME280;44432;49.786;22.760;2023-11-21T12:32:50;98643.63;;;8.37;91.17
58662;BME280;44432;49.786;22.760;2023-11-21T12:35:20;98645.00;;;8.38;91.03
58662;BME280;44432;49.786;22.760;2023-11-21T12:37:49;98645.18;;;8.35;90.80
58662;BME280;44432;49.786;22.760;2023-11-21T12:40:20;98648.30;;;8.29;90.78
58662;BME280;44432;49.786;22.760;2023-11-21T12:42:53;98648.94;;;8.25;90.74
58662;BME280;44432;49.786;22.760;2023-11-21T12:45:23;98648.90;;;8.23;91.12
58662;BME280;44432;49.786;22.760;2023-11-21T12:47:55;98650.63;;;8.20;91.16
58662;BME280;44432;49.786;22.760;2023-11-21T12:50:25;98657.60;;;8.17;91.20
58662;BME280;44432;49.786;22.760;2023-11-21T12:53:00;98662.73;;;8.16;91.43
58662;BME280;44432;49.786;22.760;2023-11-21T12:55:32;98665.34;;;8.15;91.71
58662;BME280;44432;49.786;22.760;2023-11-21T12:58:02;98666.00;;;8.14;91.59
58662;BME280;44432;49.786;22.760;2023-11-21T13:00:38;98673.68;;;8.13;91.65
58662;BME280;44432;49.786;22.760;2023-11-21T13:03:09;98677.59;;;8.09;91.53
58662;BME280;44432;49.786;22.760;2023-11-21T13:05:41;98687.52;;;8.07;91.75
58662;BME280;44432;49.786;22.760;2023-11-21T13:08:13;98688.86;;;8.05;91.84
58662;BME280;44432;49.786;22.760;2023-11-21T13:10:45;98694.72;;;8.04;92.02
58662;BME280;44432;49.786;22.760;2023-11-21T13:13:14;98696.02;;;8.02;92.02